sensor_id;sensor_type;location;lat;lon;timestamp;P1;durP1;ratioP1;P2;durP2;ratioP2
47669;SDS011;33408;52.062;11.722;2023-12-07T00:01:06;42.88;;;34.88;;
47669;SDS011;33408;52.062;11.722;2023-12-07T00:03:33;44.08;;;36.50;;
47669;SDS011;33408;52.062;11.722;2023-12-07T00:05:59;43.75;;;34.40;;
47669;SDS011;33408;52.062;11.722;2023-12-07T00:08:26;43.97;;;36.00;;
47669;SDS011;33408;52.062;11.722;2023-12-07T00:10:54;42.28;;;34.80;;
47669;SDS011;33408;52.062;11.722;2023-12-07T00:13:21;45.47;;;34.35;;
47669;SDS011;33408;52.062;11.722;2023-12-07T00:15:47;44.97;;;33.85;;
47669;SDS011;33408;52.062;11.722;2023-12-07T00:18:14;45.63;;;34.65;;
47669;SDS011;33408;52.062;11.722;2023-12-07T00:20:41;44.25;;;33.55;;
47669;SDS011;33408;52.062;11.722;2023-12-07T00:23:07;39.95;;;33.17;;
47669;SDS011;33408;52.062;11.722;2023-12-07T00:25:34;39.60;;;32.78;;
47669;SDS011;33408;52.062;11.722;2023-12-07T00:28:02;39.85;;;33.25;;
47669;SDS011;33408;52.062;11.722;2023-12-07T00:30:30;41.00;;;32.50;;
47669;SDS011;33408;52.062;11.722;2023-12-07T00:32:57;39.28;;;31.83;;
47669;SDS011;33408;52.062;11.722;2023-12-07T00:35:24;41.15;;;33.38;;
47669;SDS011;33408;52.062;11.722;2023-12-07T00:37:54;39.90;;;32.15;;
47669;SDS011;33408;52.062;11.722;2023-12-07T00:40:21;41.80;;;33.80;;
47669;SDS011;33408;52.062;11.722;2023-12-07T00:42:47;39.90;;;33.08;;
47669;SDS011;33408;52.062;11.722;2023-12-07T00:45:15;40.70;;;33.38;;
47669;SDS011;33408;52.062;11.722;2023-12-07T00:47:42;45.25;;;32.78;;
47669;SDS011;33408;52.062;11.722;2023-12-07T00:50:11;40.15;;;31.63;;
47669;SDS011;33408;52.062;11.722;2023-12-07T00:52:39;40.10;;;30.98;;
47669;SDS011;33408;52.062;11.722;2023-12-07T00:55:05;43.75;;;33.13;;
47669;SDS011;33408;52.062;11.722;2023-12-07T00:57:32;41.25;;;33.95;;
47669;SDS011;33408;52.062;11.722;2023-12-07T00:59:59;42.05;;;33.80;;
47669;SDS011;33408;52.062;11.722;2023-12-07T01:02:30;41.72;;;32.22;;
47669;SDS011;33408;52.062;11.722;2023-12-07T01:04:57;42.38;;;33.45;;
47669;SDS011;33408;52.062;11.722;2023-12-07T01:07:24;43.33;;;32.53;;
47669;SDS011;33408;52.062;11.722;2023-12-07T01:09:50;42.10;;;32.78;;
47669;SDS011;33408;52.062;11.722;2023-12-07T01:12:17;42.63;;;33.38;;
47669;SDS011;33408;52.062;11.722;2023-12-07T01:14:44;43.40;;;32.55;;
47669;SDS011;33408;52.062;11.722;2023-12-07T01:17:10;39.88;;;32.42;;
47669;SDS011;33408;52.062;11.722;2023-12-07T01:19:39;40.30;;;32.63;;
47669;SDS011;33408;52.062;11.722;2023-12-07T01:22:05;43.60;;;33.70;;
47669;SDS011;33408;52.062;11.722;2023-12-07T01:24:32;42.55;;;33.38;;
47669;SDS011;33408;52.062;11.722;2023-12-07T01:26:58;43.38;;;33.60;;
47669;SDS011;33408;52.062;11.722;2023-12-07T01:29:25;41.88;;;35.15;;
47669;SDS011;33408;52.062;11.722;2023-12-07T01:31:52;41.58;;;31.23;;
47669;SDS011;33408;52.062;11.722;2023-12-07T01:34:20;40.53;;;32.95;;
47669;SDS011;33408;52.062;11.722;2023-12-07T01:36:48;42.33;;;33.20;;
47669;SDS011;33408;52.062;11.722;2023-12-07T01:39:15;47.97;;;35.00;;
47669;SDS011;33408;52.062;11.722;2023-12-07T01:41:41;46.25;;;34.97;;
47669;SDS011;33408;52.062;11.722;2023-12-07T01:44:08;39.78;;;32.80;;
47669;SDS011;33408;52.062;11.722;2023-12-07T01:46:35;41.33;;;32.78;;
47669;SDS011;33408;52.062;11.722;2023-12-07T01:49:02;44.88;;;34.13;;
47669;SDS011;33408;52.062;11.722;2023-12-07T01:51:29;40.90;;;32.67;;
47669;SDS011;33408;52.062;11.722;2023-12-07T01:53:58;44.53;;;35.35;;
47669;SDS011;33408;52.062;11.722;2023-12-07T01:56:25;43.20;;;35.03;;
47669;SDS011;33408;52.062;11.722;2023-12-07T01:58:52;42.67;;;33.65;;
47669;SDS011;33408;52.062;11.722;2023-12-07T02:01:19;49.83;;;34.22;;
47669;SDS011;33408;52.062;11.722;2023-12-07T02:03:46;47.40;;;37.55;;
47669;SDS011;33408;52.062;11.722;2023-12-07T02:06:12;45.13;;;35.63;;
47669;SDS011;33408;52.062;11.722;2023-12-07T02:08:39;47.70;;;35.95;;
47669;SDS011;33408;52.062;11.722;2023-12-07T02:11:10;45.38;;;35.97;;
47669;SDS011;33408;52.062;11.722;2023-12-07T02:13:37;47.30;;;37.35;;
47669;SDS011;33408;52.062;11.722;2023-12-07T02:16:07;49.35;;;36.83;;
47669;SDS011;33408;52.062;11.722;2023-12-07T02:18:38;48.30;;;38.17;;
47669;SDS011;33408;52.062;11.722;2023-12-07T02:21:11;44.25;;;35.70;;
47669;SDS011;33408;52.062;11.722;2023-12-07T02:23:42;46.70;;;35.65;;
47669;SDS011;33408;52.062;11.722;2023-12-07T02:28:57;41.50;;;33.17;;
47669;SDS011;33408;52.062;11.722;2023-12-07T02:31:24;45.47;;;35.45;;
47669;SDS011;33408;52.062;11.722;2023-12-07T02:33:51;43.20;;;34.45;;
47669;SDS011;33408;52.062;11.722;2023-12-07T02:36:18;42.35;;;34.20;;
47669;SDS011;33408;52.062;11.722;2023-12-07T02:38:46;46.90;;;34.92;;
47669;SDS011;33408;52.062;11.722;2023-12-07T02:41:16;41.72;;;33.70;;
47669;SDS011;33408;52.062;11.722;2023-12-07T02:43:45;43.28;;;35.15;;
47669;SDS011;33408;52.062;11.722;2023-12-07T02:46:12;44.10;;;34.80;;
47669;SDS011;33408;52.062;11.722;2023-12-07T02:48:39;45.10;;;35.20;;
47669;SDS011;33408;52.062;11.722;2023-12-07T02:51:05;40.78;;;32.72;;
47669;SDS011;33408;52.062;11.722;2023-12-07T02:53:32;44.95;;;35.08;;
47669;SDS011;33408;52.062;11.722;2023-12-07T02:55:59;42.67;;;32.83;;
47669;SDS011;33408;52.062;11.722;2023-12-07T02:58:25;42.97;;;34.45;;
47669;SDS011;33408;52.062;11.722;2023-12-07T03:00:53;39.33;;;32.22;;
47669;SDS011;33408;52.062;11.722;2023-12-07T03:03:20;41.33;;;34.65;;
47669;SDS011;33408;52.062;11.722;2023-12-07T03:05:47;43.35;;;34.13;;
47669;SDS011;33408;52.062;11.722;2023-12-07T03:08:13;43.38;;;33.30;;
47669;SDS011;33408;52.062;11.722;2023-12-07T03:10:40;42.40;;;33.40;;
47669;SDS011;33408;52.062;11.722;2023-12-07T03:13:07;43.78;;;33.28;;
47669;SDS011;33408;52.062;11.722;2023-12-07T03:15:33;44.08;;;35.78;;
47669;SDS011;33408;52.062;11.722;2023-12-07T03:18:01;42.55;;;32.45;;
47669;SDS011;33408;52.062;11.722;2023-12-07T03:20:28;40.08;;;32.78;;
47669;SDS011;33408;52.062;11.722;2023-12-07T03:22:55;42.42;;;33.10;;
47669;SDS011;33408;52.062;11.722;2023-12-07T03:25:21;39.58;;;31.45;;
47669;SDS011;33408;52.062;11.722;2023-12-07T03:27:48;39.70;;;30.85;;
47669;SDS011;33408;52.062;11.722;2023-12-07T03:30:15;40.63;;;31.08;;
47669;SDS011;33408;52.062;11.722;2023-12-07T03:32:41;40.22;;;31.98;;
47669;SDS011;33408;52.062;11.722;2023-12-07T03:35:09;42.17;;;32.80;;
47669;SDS011;33408;52.062;11.722;2023-12-07T03:37:36;40.08;;;31.42;;
47669;SDS011;33408;52.062;11.722;2023-12-07T03:40:03;43.08;;;33.15;;
47669;SDS011;33408;52.062;11.722;2023-12-07T03:42:30;40.35;;;30.75;;
47669;SDS011;33408;52.062;11.722;2023-12-07T03:44:57;39.67;;;31.40;;
47669;SDS011;33408;52.062;11.722;2023-12-07T03:47:24;42.35;;;32.15;;
47669;SDS011;33408;52.062;11.722;2023-12-07T03:49:50;37.92;;;29.95;;
47669;SDS011;33408;52.062;11.722;2023-12-07T03:52:18;35.75;;;30.20;;
47669;SDS011;33408;52.062;11.722;2023-12-07T03:54:45;36.58;;;29.67;;
47669;SDS011;33408;52.062;11.722;2023-12-07T03:57:12;40.88;;;31.10;;
47669;SDS011;33408;52.062;11.722;2023-12-07T03:59:38;37.13;;;29.42;;
47669;SDS011;33408;52.062;11.722;2023-12-07T04:02:05;37.28;;;30.70;;
47669;SDS011;33408;52.062;11.722;2023-12-07T04:04:31;36.38;;;28.85;;
47669;SDS011;33408;52.062;11.722;2023-12-07T04:06:58;37.25;;;29.10;;
47669;SDS011;33408;52.062;11.722;2023-12-07T04:09:26;35.67;;;29.05;;
47669;SDS011;33408;52.062;11.722;2023-12-07T04:11:53;35.22;;;29.38;;
47669;SDS011;33408;52.062;11.722;2023-12-07T04:14:20;35.40;;;27.77;;
47669;SDS011;33408;52.062;11.722;2023-12-07T04:16:46;34.28;;;27.70;;
47669;SDS011;33408;52.062;11.722;2023-12-07T04:19:13;33.97;;;28.80;;
47669;SDS011;33408;52.062;11.722;2023-12-07T04:21:40;32.92;;;26.65;;
47669;SDS011;33408;52.062;11.722;2023-12-07T04:24:06;34.78;;;27.75;;
47669;SDS011;33408;52.062;11.722;2023-12-07T04:26:35;34.92;;;28.95;;
47669;SDS011;33408;52.062;11.722;2023-12-07T04:29:01;35.90;;;29.23;;
47669;SDS011;33408;52.062;11.722;2023-12-07T04:31:28;37.72;;;29.35;;
47669;SDS011;33408;52.062;11.722;2023-12-07T04:33:55;32.08;;;26.85;;
47669;SDS011;33408;52.062;11.722;2023-12-07T04:36:21;34.88;;;27.00;;
47669;SDS011;33408;52.062;11.722;2023-12-07T04:38:48;32.22;;;27.13;;
47669;SDS011;33408;52.062;11.722;2023-12-07T04:41:14;33.35;;;27.33;;
47669;SDS011;33408;52.062;11.722;2023-12-07T04:43:42;33.75;;;26.48;;
47669;SDS011;33408;52.062;11.722;2023-12-07T04:46:12;33.63;;;27.85;;
47669;SDS011;33408;52.062;11.722;2023-12-07T04:48:39;32.67;;;26.05;;
47669;SDS011;33408;52.062;11.722;2023-12-07T04:51:06;31.67;;;24.98;;
47669;SDS011;33408;52.062;11.722;2023-12-07T04:53:32;30.77;;;24.90;;
47669;SDS011;33408;52.062;11.722;2023-12-07T04:55:59;31.45;;;25.00;;
47669;SDS011;33408;52.062;11.722;2023-12-07T04:58:26;31.00;;;24.35;;
47669;SDS011;33408;52.062;11.722;2023-12-07T05:00:54;31.00;;;24.30;;
47669;SDS011;33408;52.062;11.722;2023-12-07T05:03:20;31.02;;;24.20;;
47669;SDS011;33408;52.062;11.722;2023-12-07T05:05:47;29.52;;;24.08;;
47669;SDS011;33408;52.062;11.722;2023-12-07T05:08:15;30.77;;;25.10;;
47669;SDS011;33408;52.062;11.722;2023-12-07T05:10:43;29.70;;;23.58;;
47669;SDS011;33408;52.062;11.722;2023-12-07T05:13:09;30.55;;;25.60;;
47669;SDS011;33408;52.062;11.722;2023-12-07T05:15:36;27.60;;;23.13;;
47669;SDS011;33408;52.062;11.722;2023-12-07T05:18:07;28.65;;;24.42;;
47669;SDS011;33408;52.062;11.722;2023-12-07T05:20:34;32.10;;;25.30;;
47669;SDS011;33408;52.062;11.722;2023-12-07T05:23:04;30.73;;;26.08;;
47669;SDS011;33408;52.062;11.722;2023-12-07T05:25:31;29.95;;;24.63;;
47669;SDS011;33408;52.062;11.722;2023-12-07T05:27:58;31.30;;;26.63;;
47669;SDS011;33408;52.062;11.722;2023-12-07T05:30:25;32.33;;;26.40;;
47669;SDS011;33408;52.062;11.722;2023-12-07T05:32:53;31.60;;;24.40;;
47669;SDS011;33408;52.062;11.722;2023-12-07T05:35:21;30.00;;;25.35;;
47669;SDS011;33408;52.062;11.722;2023-12-07T05:37:48;29.70;;;25.20;;
47669;SDS011;33408;52.062;11.722;2023-12-07T05:40:15;32.60;;;25.20;;
47669;SDS011;33408;52.062;11.722;2023-12-07T05:42:42;32.28;;;26.05;;
47669;SDS011;33408;52.062;11.722;2023-12-07T05:45:09;30.52;;;25.58;;
47669;SDS011;33408;52.062;11.722;2023-12-07T05:47:36;31.00;;;26.15;;
47669;SDS011;33408;52.062;11.722;2023-12-07T05:50:03;34.65;;;26.77;;
47669;SDS011;33408;52.062;11.722;2023-12-07T05:52:33;32.03;;;26.02;;
47669;SDS011;33408;52.062;11.722;2023-12-07T05:55:00;33.30;;;25.58;;
47669;SDS011;33408;52.062;11.722;2023-12-07T05:57:27;31.00;;;26.02;;
47669;SDS011;33408;52.062;11.722;2023-12-07T05:59:54;34.75;;;27.45;;
47669;SDS011;33408;52.062;11.722;2023-12-07T06:02:20;38.22;;;27.70;;
47669;SDS011;33408;52.062;11.722;2023-12-07T06:04:47;35.45;;;28.02;;
47669;SDS011;33408;52.062;11.722;2023-12-07T06:07:15;35.67;;;29.50;;
47669;SDS011;33408;52.062;11.722;2023-12-07T06:09:43;35.55;;;28.30;;
47669;SDS011;33408;52.062;11.722;2023-12-07T06:12:09;32.45;;;26.77;;
47669;SDS011;33408;52.062;11.722;2023-12-07T06:14:36;36.67;;;28.92;;
47669;SDS011;33408;52.062;11.722;2023-12-07T06:17:03;36.55;;;29.10;;
47669;SDS011;33408;52.062;11.722;2023-12-07T06:19:29;37.45;;;29.60;;
47669;SDS011;33408;52.062;11.722;2023-12-07T06:21:57;45.67;;;29.77;;
47669;SDS011;33408;52.062;11.722;2023-12-07T06:24:23;39.67;;;29.85;;
47669;SDS011;33408;52.062;11.722;2023-12-07T06:26:51;41.72;;;31.75;;
47669;SDS011;33408;52.062;11.722;2023-12-07T06:29:18;40.88;;;32.05;;
47669;SDS011;33408;52.062;11.722;2023-12-07T06:31:45;41.38;;;31.88;;
47669;SDS011;33408;52.062;11.722;2023-12-07T06:34:12;40.03;;;31.00;;
47669;SDS011;33408;52.062;11.722;2023-12-07T06:36:38;41.60;;;32.38;;
47669;SDS011;33408;52.062;11.722;2023-12-07T06:39:05;42.10;;;32.95;;
47669;SDS011;33408;52.062;11.722;2023-12-07T06:41:32;41.05;;;31.58;;
47669;SDS011;33408;52.062;11.722;2023-12-07T06:44:00;42.65;;;33.22;;
47669;SDS011;33408;52.062;11.722;2023-12-07T06:46:27;44.75;;;34.47;;
47669;SDS011;33408;52.062;11.722;2023-12-07T06:48:54;41.63;;;33.20;;
47669;SDS011;33408;52.062;11.722;2023-12-07T06:51:20;44.60;;;32.17;;
47669;SDS011;33408;52.062;11.722;2023-12-07T06:53:47;43.13;;;33.30;;
47669;SDS011;33408;52.062;11.722;2023-12-07T06:56:14;44.47;;;33.00;;
47669;SDS011;33408;52.062;11.722;2023-12-07T06:58:41;39.20;;;30.15;;
47669;SDS011;33408;52.062;11.722;2023-12-07T07:01:09;45.58;;;31.98;;
47669;SDS011;33408;52.062;11.722;2023-12-07T07:03:35;40.03;;;31.85;;
47669;SDS011;33408;52.062;11.722;2023-12-07T07:06:02;41.35;;;31.25;;
47669;SDS011;33408;52.062;11.722;2023-12-07T07:08:29;45.05;;;31.85;;
47669;SDS011;33408;52.062;11.722;2023-12-07T07:10:55;40.60;;;32.10;;
47669;SDS011;33408;52.062;11.722;2023-12-07T07:13:22;42.25;;;32.88;;
47669;SDS011;33408;52.062;11.722;2023-12-07T07:15:50;44.92;;;33.97;;
47669;SDS011;33408;52.062;11.722;2023-12-07T07:18:18;43.05;;;33.05;;
47669;SDS011;33408;52.062;11.722;2023-12-07T07:20:45;43.47;;;33.75;;
47669;SDS011;33408;52.062;11.722;2023-12-07T07:23:12;44.15;;;34.17;;
47669;SDS011;33408;52.062;11.722;2023-12-07T07:25:39;45.20;;;35.75;;
47669;SDS011;33408;52.062;11.722;2023-12-07T07:28:06;46.47;;;35.03;;
47669;SDS011;33408;52.062;11.722;2023-12-07T07:30:32;47.97;;;35.80;;
47669;SDS011;33408;52.062;11.722;2023-12-07T07:32:59;42.67;;;33.90;;
47669;SDS011;33408;52.062;11.722;2023-12-07T07:35:27;42.55;;;35.00;;
47669;SDS011;33408;52.062;11.722;2023-12-07T07:37:54;44.30;;;33.33;;
47669;SDS011;33408;52.062;11.722;2023-12-07T07:40:21;39.67;;;30.60;;
47669;SDS011;33408;52.062;11.722;2023-12-07T07:42:47;37.20;;;30.83;;
47669;SDS011;33408;52.062;11.722;2023-12-07T07:45:14;40.45;;;31.42;;
47669;SDS011;33408;52.062;11.722;2023-12-07T07:47:41;43.67;;;32.80;;
47669;SDS011;33408;52.062;11.722;2023-12-07T07:50:08;39.53;;;30.70;;
47669;SDS011;33408;52.062;11.722;2023-12-07T07:52:37;40.15;;;30.45;;
47669;SDS011;33408;52.062;11.722;2023-12-07T07:55:05;43.47;;;32.67;;
47669;SDS011;33408;52.062;11.722;2023-12-07T07:57:33;42.75;;;31.48;;
47669;SDS011;33408;52.062;11.722;2023-12-07T07:59:59;39.63;;;32.38;;
47669;SDS011;33408;52.062;11.722;2023-12-07T08:02:26;39.58;;;32.75;;
47669;SDS011;33408;52.062;11.722;2023-12-07T08:04:53;40.75;;;32.70;;
47669;SDS011;33408;52.062;11.722;2023-12-07T08:07:20;40.45;;;32.10;;
47669;SDS011;33408;52.062;11.722;2023-12-07T08:09:48;37.90;;;31.20;;
47669;SDS011;33408;52.062;11.722;2023-12-07T08:12:14;41.38;;;34.33;;
47669;SDS011;33408;52.062;11.722;2023-12-07T08:14:41;40.47;;;32.63;;
47669;SDS011;33408;52.062;11.722;2023-12-07T08:17:09;36.03;;;30.42;;
47669;SDS011;33408;52.062;11.722;2023-12-07T08:19:36;40.28;;;31.98;;
47669;SDS011;33408;52.062;11.722;2023-12-07T08:22:03;41.83;;;32.95;;
47669;SDS011;33408;52.062;11.722;2023-12-07T08:24:30;40.63;;;31.45;;
47669;SDS011;33408;52.062;11.722;2023-12-07T08:26:58;43.67;;;31.38;;
47669;SDS011;33408;52.062;11.722;2023-12-07T08:29:24;40.40;;;32.95;;
47669;SDS011;33408;52.062;11.722;2023-12-07T08:31:51;41.22;;;31.85;;
47669;SDS011;33408;52.062;11.722;2023-12-07T08:34:18;43.03;;;35.28;;
47669;SDS011;33408;52.062;11.722;2023-12-07T08:36:44;41.33;;;33.45;;
47669;SDS011;33408;52.062;11.722;2023-12-07T08:39:11;40.13;;;31.25;;
47669;SDS011;33408;52.062;11.722;2023-12-07T08:41:38;38.38;;;32.00;;
47669;SDS011;33408;52.062;11.722;2023-12-07T08:44:06;37.90;;;31.70;;
47669;SDS011;33408;52.062;11.722;2023-12-07T08:46:32;36.90;;;31.38;;
47669;SDS011;33408;52.062;11.722;2023-12-07T08:48:59;35.67;;;30.17;;
47669;SDS011;33408;52.062;11.722;2023-12-07T08:51:28;38.03;;;30.65;;
47669;SDS011;33408;52.062;11.722;2023-12-07T08:53:54;38.25;;;30.55;;
47669;SDS011;33408;52.062;11.722;2023-12-07T08:56:21;38.40;;;31.73;;
47669;SDS011;33408;52.062;11.722;2023-12-07T08:58:48;39.15;;;32.47;;
47669;SDS011;33408;52.062;11.722;2023-12-07T09:01:16;37.72;;;31.98;;
47669;SDS011;33408;52.062;11.722;2023-12-07T09:03:43;37.25;;;30.65;;
47669;SDS011;33408;52.062;11.722;2023-12-07T09:06:10;35.92;;;30.08;;
47669;SDS011;33408;52.062;11.722;2023-12-07T09:08:37;37.20;;;30.40;;
47669;SDS011;33408;52.062;11.722;2023-12-07T09:11:03;37.15;;;30.88;;
47669;SDS011;33408;52.062;11.722;2023-12-07T09:13:30;38.78;;;32.17;;
47669;SDS011;33408;52.062;11.722;2023-12-07T09:15:57;36.45;;;30.73;;
47669;SDS011;33408;52.062;11.722;2023-12-07T09:18:25;38.13;;;31.60;;
47669;SDS011;33408;52.062;11.722;2023-12-07T09:20:51;34.92;;;30.35;;
47669;SDS011;33408;52.062;11.722;2023-12-07T09:23:18;36.15;;;30.33;;
47669;SDS011;33408;52.062;11.722;2023-12-07T09:25:45;35.53;;;29.08;;
47669;SDS011;33408;52.062;11.722;2023-12-07T09:28:12;35.42;;;29.90;;
47669;SDS011;33408;52.062;11.722;2023-12-07T09:30:38;37.75;;;30.63;;
47669;SDS011;33408;52.062;11.722;2023-12-07T09:33:09;37.60;;;29.80;;
47669;SDS011;33408;52.062;11.722;2023-12-07T09:35:38;33.03;;;28.00;;
47669;SDS011;33408;52.062;11.722;2023-12-07T09:38:05;35.75;;;30.58;;
47669;SDS011;33408;52.062;11.722;2023-12-07T09:40:32;35.85;;;29.25;;
47669;SDS011;33408;52.062;11.722;2023-12-07T09:42:58;34.97;;;30.05;;
47669;SDS011;33408;52.062;11.722;2023-12-07T09:45:25;35.33;;;28.48;;
47669;SDS011;33408;52.062;11.722;2023-12-07T09:47:52;34.92;;;30.15;;
47669;SDS011;33408;52.062;11.722;2023-12-07T09:50:21;37.22;;;28.73;;
47669;SDS011;33408;52.062;11.722;2023-12-07T09:52:49;33.75;;;28.80;;
47669;SDS011;33408;52.062;11.722;2023-12-07T09:55:17;35.88;;;28.55;;
47669;SDS011;33408;52.062;11.722;2023-12-07T09:57:45;33.72;;;29.20;;
47669;SDS011;33408;52.062;11.722;2023-12-07T10:00:12;34.10;;;29.25;;
47669;SDS011;33408;52.062;11.722;2023-12-07T10:02:40;32.90;;;28.02;;
47669;SDS011;33408;52.062;11.722;2023-12-07T10:05:08;33.72;;;26.77;;
47669;SDS011;33408;52.062;11.722;2023-12-07T10:07:39;31.20;;;26.80;;
47669;SDS011;33408;52.062;11.722;2023-12-07T10:10:08;29.70;;;26.45;;
47669;SDS011;33408;52.062;11.722;2023-12-07T10:12:44;32.95;;;28.20;;
47669;SDS011;33408;52.062;11.722;2023-12-07T10:15:12;33.05;;;26.50;;
47669;SDS011;33408;52.062;11.722;2023-12-07T10:17:43;33.60;;;27.38;;
47669;SDS011;33408;52.062;11.722;2023-12-07T10:20:13;31.73;;;27.13;;
47669;SDS011;33408;52.062;11.722;2023-12-07T10:22:41;29.73;;;26.50;;
47669;SDS011;33408;52.062;11.722;2023-12-07T10:25:10;30.90;;;26.15;;
47669;SDS011;33408;52.062;11.722;2023-12-07T10:27:38;33.33;;;26.45;;
47669;SDS011;33408;52.062;11.722;2023-12-07T10:30:07;30.40;;;26.48;;
47669;SDS011;33408;52.062;11.722;2023-12-07T10:32:36;28.08;;;24.52;;
47669;SDS011;33408;52.062;11.722;2023-12-07T10:35:03;27.45;;;24.15;;
47669;SDS011;33408;52.062;11.722;2023-12-07T10:37:32;31.80;;;25.75;;
47669;SDS011;33408;52.062;11.722;2023-12-07T10:39:58;27.08;;;23.98;;
47669;SDS011;33408;52.062;11.722;2023-12-07T10:42:26;26.48;;;23.20;;
47669;SDS011;33408;52.062;11.722;2023-12-07T10:44:59;28.58;;;24.58;;
47669;SDS011;33408;52.062;11.722;2023-12-07T10:47:32;27.92;;;23.80;;
47669;SDS011;33408;52.062;11.722;2023-12-07T10:50:02;29.67;;;24.67;;
47669;SDS011;33408;52.062;11.722;2023-12-07T10:52:36;27.08;;;22.50;;
47669;SDS011;33408;52.062;11.722;2023-12-07T10:55:05;26.10;;;23.25;;
47669;SDS011;33408;52.062;11.722;2023-12-07T10:57:35;29.30;;;23.42;;
47669;SDS011;33408;52.062;11.722;2023-12-07T11:00:05;27.48;;;22.80;;
47669;SDS011;33408;52.062;11.722;2023-12-07T11:02:33;27.35;;;23.55;;
47669;SDS011;33408;52.062;11.722;2023-12-07T11:05:01;24.77;;;21.90;;
47669;SDS011;33408;52.062;11.722;2023-12-07T11:07:31;27.33;;;23.65;;
47669;SDS011;33408;52.062;11.722;2023-12-07T11:10:07;27.05;;;24.15;;
47669;SDS011;33408;52.062;11.722;2023-12-07T11:12:40;28.20;;;24.55;;
47669;SDS011;33408;52.062;11.722;2023-12-07T11:15:13;28.15;;;24.75;;
47669;SDS011;33408;52.062;11.722;2023-12-07T11:17:47;31.38;;;27.13;;
47669;SDS011;33408;52.062;11.722;2023-12-07T11:20:18;29.10;;;24.85;;
47669;SDS011;33408;52.062;11.722;2023-12-07T11:22:45;27.00;;;23.50;;
47669;SDS011;33408;52.062;11.722;2023-12-07T11:25:14;25.73;;;22.92;;
47669;SDS011;33408;52.062;11.722;2023-12-07T11:27:45;27.42;;;23.95;;
47669;SDS011;33408;52.062;11.722;2023-12-07T11:30:14;27.40;;;22.38;;
47669;SDS011;33408;52.062;11.722;2023-12-07T11:32:42;29.80;;;24.50;;
47669;SDS011;33408;52.062;11.722;2023-12-07T11:35:12;26.00;;;23.13;;
47669;SDS011;33408;52.062;11.722;2023-12-07T11:40:30;25.85;;;22.83;;
47669;SDS011;33408;52.062;11.722;2023-12-07T11:43:00;27.50;;;24.05;;
47669;SDS011;33408;52.062;11.722;2023-12-07T11:45:36;24.87;;;21.87;;
47669;SDS011;33408;52.062;11.722;2023-12-07T11:48:07;25.42;;;22.42;;
47669;SDS011;33408;52.062;11.722;2023-12-07T11:50:52;25.67;;;22.77;;
47669;SDS011;33408;52.062;11.722;2023-12-07T11:53:21;27.02;;;23.40;;
47669;SDS011;33408;52.062;11.722;2023-12-07T11:55:49;27.40;;;23.38;;
47669;SDS011;33408;52.062;11.722;2023-12-07T11:58:17;25.15;;;22.42;;
47669;SDS011;33408;52.062;11.722;2023-12-07T12:00:45;25.10;;;22.40;;
47669;SDS011;33408;52.062;11.722;2023-12-07T12:03:12;26.55;;;23.70;;
47669;SDS011;33408;52.062;11.722;2023-12-07T12:05:40;28.25;;;23.75;;
47669;SDS011;33408;52.062;11.722;2023-12-07T12:08:08;27.58;;;23.67;;
47669;SDS011;33408;52.062;11.722;2023-12-07T12:10:35;26.60;;;22.67;;
47669;SDS011;33408;52.062;11.722;2023-12-07T12:13:01;26.52;;;23.10;;
47669;SDS011;33408;52.062;11.722;2023-12-07T12:15:31;25.10;;;21.58;;
47669;SDS011;33408;52.062;11.722;2023-12-07T12:17:58;25.30;;;22.60;;
47669;SDS011;33408;52.062;11.722;2023-12-07T12:20:25;25.52;;;21.75;;
47669;SDS011;33408;52.062;11.722;2023-12-07T12:22:53;26.55;;;22.20;;
47669;SDS011;33408;52.062;11.722;2023-12-07T12:25:20;24.63;;;22.00;;
47669;SDS011;33408;52.062;11.722;2023-12-07T12:27:50;27.58;;;21.40;;
47669;SDS011;33408;52.062;11.722;2023-12-07T12:30:18;23.58;;;20.95;;
47669;SDS011;33408;52.062;11.722;2023-12-07T12:32:47;23.55;;;20.98;;
47669;SDS011;33408;52.062;11.722;2023-12-07T12:35:15;23.27;;;20.75;;
47669;SDS011;33408;52.062;11.722;2023-12-07T12:37:42;24.02;;;21.25;;
47669;SDS011;33408;52.062;11.722;2023-12-07T12:40:10;23.55;;;20.50;;
47669;SDS011;33408;52.062;11.722;2023-12-07T12:42:37;25.70;;;21.48;;
47669;SDS011;33408;52.062;11.722;2023-12-07T12:45:04;25.98;;;20.05;;
47669;SDS011;33408;52.062;11.722;2023-12-07T12:47:33;23.42;;;20.90;;
47669;SDS011;33408;52.062;11.722;2023-12-07T12:50:02;24.90;;;21.75;;
47669;SDS011;33408;52.062;11.722;2023-12-07T12:52:29;25.33;;;22.23;;
47669;SDS011;33408;52.062;11.722;2023-12-07T12:54:56;24.27;;;21.67;;
47669;SDS011;33408;52.062;11.722;2023-12-07T12:57:23;25.73;;;22.52;;
47669;SDS011;33408;52.062;11.722;2023-12-07T12:59:50;27.15;;;21.00;;
47669;SDS011;33408;52.062;11.722;2023-12-07T13:02:18;26.40;;;21.33;;
47669;SDS011;33408;52.062;11.722;2023-12-07T13:04:45;27.83;;;22.77;;
47669;SDS011;33408;52.062;11.722;2023-12-07T13:07:13;28.50;;;21.80;;
47669;SDS011;33408;52.062;11.722;2023-12-07T13:09:40;23.90;;;21.10;;
47669;SDS011;33408;52.062;11.722;2023-12-07T13:12:08;26.60;;;22.98;;
47669;SDS011;33408;52.062;11.722;2023-12-07T13:14:35;24.42;;;22.00;;
47669;SDS011;33408;52.062;11.722;2023-12-07T13:17:03;27.33;;;24.35;;
47669;SDS011;33408;52.062;11.722;2023-12-07T13:19:30;26.25;;;21.92;;
47669;SDS011;33408;52.062;11.722;2023-12-07T13:21:57;26.38;;;22.33;;
47669;SDS011;33408;52.062;11.722;2023-12-07T13:24:25;24.65;;;21.98;;
47669;SDS011;33408;52.062;11.722;2023-12-07T13:26:51;24.15;;;20.88;;
47669;SDS011;33408;52.062;11.722;2023-12-07T13:29:18;23.83;;;20.73;;
47669;SDS011;33408;52.062;11.722;2023-12-07T13:31:45;23.05;;;20.13;;
47669;SDS011;33408;52.062;11.722;2023-12-07T13:34:11;26.08;;;22.55;;
47669;SDS011;33408;52.062;11.722;2023-12-07T13:36:39;23.77;;;20.30;;
47669;SDS011;33408;52.062;11.722;2023-12-07T13:39:05;24.95;;;20.98;;
47669;SDS011;33408;52.062;11.722;2023-12-07T13:41:35;24.83;;;21.23;;
47669;SDS011;33408;52.062;11.722;2023-12-07T13:44:01;23.67;;;20.98;;
47669;SDS011;33408;52.062;11.722;2023-12-07T13:46:29;48.35;;;33.42;;
47669;SDS011;33408;52.062;11.722;2023-12-07T13:48:56;34.78;;;25.77;;
47669;SDS011;33408;52.062;11.722;2023-12-07T13:51:23;26.75;;;22.30;;
47669;SDS011;33408;52.062;11.722;2023-12-07T13:53:50;25.60;;;21.98;;
47669;SDS011;33408;52.062;11.722;2023-12-07T13:56:20;26.15;;;23.33;;
47669;SDS011;33408;52.062;11.722;2023-12-07T13:58:49;25.02;;;21.90;;
47669;SDS011;33408;52.062;11.722;2023-12-07T14:01:16;26.05;;;22.05;;
47669;SDS011;33408;52.062;11.722;2023-12-07T14:03:43;25.58;;;22.13;;
47669;SDS011;33408;52.062;11.722;2023-12-07T14:06:10;24.77;;;21.50;;
47669;SDS011;33408;52.062;11.722;2023-12-07T14:08:39;24.80;;;21.45;;
47669;SDS011;33408;52.062;11.722;2023-12-07T14:11:05;23.85;;;21.35;;
47669;SDS011;33408;52.062;11.722;2023-12-07T14:13:32;24.25;;;21.70;;
47669;SDS011;33408;52.062;11.722;2023-12-07T14:16:00;25.23;;;20.67;;